Time;durP1;ratioP1;P1;durP2;ratioP2;P2;SDS_P1;SDS_P2;PMS_P1;PMS_P2;Temp;Humidity;BMP_temperature;BMP_pressure;BME280_temperature;BME280_humidity;BME280_pressure;Samples;Min_cycle;Max_cycle;Signal;HPM_P1;HPM_P2
2022/01/18 00:01:15;;;;;;;9.23;5.45;;;3.80;99.90;;;;;;5031571;28;20108;-84
2022/01/18 00:03:41;;;;;;;9.57;6.05;;;3.80;99.70;;;;;;5045365;28;20021;-84
2022/01/18 00:06:08;;;;;;;9.05;5.65;;;3.80;99.50;;;;;;5039786;28;20109;-85
2022/01/18 00:08:34;;;;;;;8.05;5.72;;;3.80;99.50;;;;;;5022573;28;20021;-85
2022/01/18 00:10:59;;;;;;;8.82;5.00;;;3.90;99.40;;;;;;5040401;28;20028;-84
2022/01/18 00:13:49;;;;;;;10.25;6.05;;;3.90;99.50;;;;;;5050928;28;20059;-86
2022/01/18 00:19:06;;;;;;;8.02;5.65;;;3.90;99.30;;;;;;5046426;28;20156;-83
2022/01/18 00:22:07;;;;;;;8.90;6.00;;;4.00;99.20;;;;;;5024426;28;20036;-82
2022/01/18 00:24:17;;;;;;;8.15;6.05;;;4.00;99.20;;;;;;5045427;28;20148;-83
2022/01/18 00:26:43;;;;;;;8.50;5.78;;;3.90;99.30;;;;;;5034324;28;20050;-84
2022/01/18 00:29:10;;;;;;;7.32;5.45;;;3.90;99.70;;;;;;5038318;28;20021;-84
2022/01/18 00:34:23;;;;;;;8.65;5.88;;;3.90;99.90;;;;;;5045354;28;20029;-84
2022/01/18 00:39:17;;;;;;;9.32;5.45;;;3.80;99.90;;;;;;5038326;28;20021;-84
2022/01/18 00:41:44;;;;;;;9.43;5.53;;;3.70;99.90;;;;;;5047583;28;20005;-82
2022/01/18 00:44:11;;;;;;;10.35;6.00;;;3.70;99.90;;;;;;5040363;28;20021;-85
2022/01/18 00:46:39;;;;;;;11.18;6.43;;;3.60;99.90;;;;;;5038583;28;20505;-84
2022/01/18 00:49:05;;;;;;;16.08;7.07;;;3.60;99.90;;;;;;5023083;28;20036;-84
2022/01/18 00:51:37;;;;;;;9.90;6.80;;;3.60;99.90;;;;;;5037435;28;20033;-85
2022/01/18 00:54:04;;;;;;;11.95;6.50;;;3.50;99.90;;;;;;5037550;28;20021;-85
2022/01/18 00:56:31;;;;;;;11.60;6.88;;;3.50;99.90;;;;;;5027695;28;20392;-85
2022/01/18 00:58:59;;;;;;;10.57;7.03;;;3.40;99.90;;;;;;5012912;28;20048;-84
2022/01/18 01:01:28;;;;;;;9.30;6.55;;;3.40;99.90;;;;;;5036792;28;20026;-84
2022/01/18 01:03:58;;;;;;;9.35;6.88;;;3.40;99.90;;;;;;5044093;28;20028;-81
2022/01/18 01:06:24;;;;;;;11.88;6.70;;;3.40;99.90;;;;;;5054790;28;20013;-81
2022/01/18 01:08:51;;;;;;;11.55;7.28;;;3.40;99.90;;;;;;5044944;28;20092;-83
2022/01/18 01:11:17;;;;;;;11.77;6.78;;;3.40;99.90;;;;;;5036353;28;20101;-83
2022/01/18 01:13:46;;;;;;;10.70;7.40;;;3.40;99.90;;;;;;5044424;28;20060;-84
2022/01/18 01:45:31;;;;;;;12.38;7.75;;;3.50;99.90;;;;;;5032295;28;20053;-83
2022/01/18 01:47:59;;;;;;;11.77;7.32;;;3.50;99.90;;;;;;5021525;28;20021;-84
2022/01/18 01:50:29;;;;;;;11.15;7.70;;;3.50;99.90;;;;;;5020942;28;20024;-84
2022/01/18 01:52:56;;;;;;;14.07;8.23;;;3.50;99.90;;;;;;5017300;28;20112;-85
2022/01/18 01:55:23;;;;;;;13.75;7.75;;;3.60;99.90;;;;;;5018497;28;20469;-85
2022/01/18 01:57:53;;;;;;;11.13;7.55;;;3.60;99.90;;;;;;5027321;28;20022;-85
2022/01/18 02:00:20;;;;;;;12.02;7.63;;;3.60;99.90;;;;;;5035799;28;20076;-84
2022/01/18 02:02:47;;;;;;;10.60;7.28;;;3.60;99.90;;;;;;5035812;28;20520;-85
2022/01/18 02:05:13;;;;;;;12.80;7.72;;;3.60;99.90;;;;;;5035307;28;20041;-82
2022/01/18 02:07:39;;;;;;;11.77;7.63;;;3.60;99.90;;;;;;5038339;28;20201;-82
2022/01/18 02:10:12;;;;;;;10.18;7.18;;;3.70;99.90;;;;;;5037255;28;20461;-82
2022/01/18 02:12:38;;;;;;;13.68;7.85;;;3.60;99.90;;;;;;5038679;28;20061;-81
2022/01/18 02:15:17;;;;;;;11.63;7.07;;;3.70;99.90;;;;;;5037150;28;20029;-82
2022/01/18 02:23:23;;;;;;;11.20;6.68;;;3.70;99.90;;;;;;5038307;28;20037;-82
2022/01/18 02:25:49;;;;;;;11.15;7.00;;;3.70;99.90;;;;;;5038584;28;20058;-81
2022/01/18 02:28:16;;;;;;;11.10;7.18;;;3.70;99.90;;;;;;5038467;28;20037;-82
2022/01/18 02:30:42;;;;;;;15.20;8.77;;;3.70;99.90;;;;;;5041642;28;20394;-82
2022/01/18 02:33:08;;;;;;;11.05;8.18;;;3.70;99.90;;;;;;5044893;28;20021;-82
2022/01/18 02:35:35;;;;;;;12.10;7.70;;;3.60;99.90;;;;;;5043465;28;20097;-82
2022/01/18 02:38:10;;;;;;;10.88;7.22;;;3.60;99.90;;;;;;5040882;28;20025;-82
2022/01/18 02:40:36;;;;;;;11.75;6.93;;;3.50;99.90;;;;;;5039908;28;20055;-82
2022/01/18 02:45:51;;;;;;;10.88;7.32;;;3.50;99.90;;;;;;5039919;28;20088;-82
2022/01/18 02:48:17;;;;;;;12.18;7.15;;;3.50;99.90;;;;;;5039143;28;20033;-82
2022/01/18 02:50:43;;;;;;;12.23;7.93;;;3.50;99.90;;;;;;5052566;28;20022;-82
2022/01/18 02:53:09;;;;;;;12.10;7.90;;;3.50;99.90;;;;;;5050145;28;20133;-82
2022/01/18 02:55:35;;;;;;;13.23;7.75;;;3.50;99.90;;;;;;5026824;28;20080;-82
2022/01/18 02:58:08;;;;;;;14.32;8.32;;;3.50;99.90;;;;;;5010147;28;20061;-82
2022/01/18 03:03:11;;;;;;;10.80;7.32;;;3.50;99.90;;;;;;5040215;28;20017;-82
2022/01/18 03:03:24;;;;;;;9.93;6.93;;;3.50;99.90;;;;;;5039904;28;20021;-82
2022/01/18 03:05:50;;;;;;;12.05;7.50;;;3.60;99.90;;;;;;5038420;28;20517;-82
2022/01/18 03:08:17;;;;;;;14.95;9.18;;;3.60;99.90;;;;;;5043276;28;20033;-81
2022/01/18 03:10:43;;;;;;;10.68;7.25;;;3.60;99.90;;;;;;5044847;28;20028;-82
2022/01/18 03:13:09;;;;;;;11.73;8.10;;;3.60;99.90;;;;;;5039197;28;20037;-82
2022/01/18 03:15:36;;;;;;;12.07;8.80;;;3.70;99.90;;;;;;5046226;28;20048;-82
2022/01/18 03:18:04;;;;;;;14.05;8.80;;;3.70;99.90;;;;;;5054191;28;20060;-82
2022/01/18 03:20:30;;;;;;;13.23;8.45;;;3.60;99.90;;;;;;5034747;28;20028;-81
2022/01/18 03:22:56;;;;;;;13.23;9.18;;;3.60;99.90;;;;;;5042012;28;20029;-82
2022/01/18 03:28:04;;;;;;;12.77;8.68;;;3.60;99.90;;;;;;5034737;28;20025;-81
2022/01/18 03:30:34;;;;;;;11.80;7.57;;;3.60;99.90;;;;;;5038650;28;20104;-81
2022/01/18 03:33:01;;;;;;;13.50;8.85;;;3.60;99.90;;;;;;5049786;28;20514;-81
2022/01/18 03:35:27;;;;;;;14.05;9.60;;;3.60;99.90;;;;;;5047226;28;20028;-82
2022/01/18 03:37:53;;;;;;;12.27;8.60;;;3.60;99.90;;;;;;5041088;28;20085;-82
2022/01/18 03:40:19;;;;;;;12.35;7.90;;;3.60;99.90;;;;;;5041165;28;20021;-82
2022/01/18 03:42:46;;;;;;;12.85;8.77;;;3.60;99.90;;;;;;5039854;28;20022;-82
2022/01/18 03:45:14;;;;;;;12.70;8.57;;;3.60;99.90;;;;;;5042476;28;20021;-82
2022/01/18 03:47:41;;;;;;;13.10;9.02;;;3.60;99.90;;;;;;5039620;28;20440;-82
2022/01/18 03:50:08;;;;;;;11.77;7.95;;;3.60;99.90;;;;;;5041107;28;20026;-82
2022/01/18 03:52:34;;;;;;;12.68;8.85;;;3.60;99.90;;;;;;5041306;28;20052;-82
2022/01/18 03:55:00;;;;;;;12.85;9.25;;;3.60;99.90;;;;;;5035802;28;20034;-82
2022/01/18 03:57:26;;;;;;;13.10;9.18;;;3.70;99.90;;;;;;5011518;28;20032;-82
2022/01/18 03:59:52;;;;;;;15.45;8.90;;;3.70;99.90;;;;;;5020926;28;20033;-81
2022/01/18 04:02:18;;;;;;;13.18;8.23;;;3.70;99.90;;;;;;5003479;28;20053;-81
2022/01/18 04:04:44;;;;;;;15.20;9.98;;;3.70;99.90;;;;;;5003017;28;20033;-81
2022/01/18 04:07:10;;;;;;;15.32;9.05;;;3.70;99.90;;;;;;5020937;28;20026;-81
2022/01/18 04:09:38;;;;;;;12.60;8.88;;;3.70;99.90;;;;;;5020328;28;20105;-82
2022/01/18 04:12:05;;;;;;;12.18;8.50;;;3.70;99.90;;;;;;5002288;28;20036;-82
2022/01/18 04:14:31;;;;;;;14.77;9.45;;;3.70;99.90;;;;;;5021343;28;20030;-82
2022/01/18 04:17:50;;;;;;;14.52;8.88;;;3.70;99.90;;;;;;5021399;28;20131;-82
2022/01/18 04:27:59;;;;;;;13.43;8.80;;;3.70;99.90;;;;;;5035198;28;20033;-82
2022/01/18 04:30:25;;;;;;;14.48;9.63;;;3.70;99.90;;;;;;5041249;28;20029;-81
2022/01/18 04:32:51;;;;;;;14.75;9.52;;;3.70;99.90;;;;;;5039395;28;20119;-81
2022/01/18 04:35:16;;;;;;;16.85;10.25;;;3.70;99.90;;;;;;5030642;28;20037;-81
2022/01/18 04:37:42;;;;;;;14.52;9.55;;;3.70;99.90;;;;;;5051873;28;20101;-81
2022/01/18 04:40:13;;;;;;;16.52;9.80;;;3.70;99.90;;;;;;5048005;28;20027;-82
2022/01/18 04:43:03;;;;;;;16.27;9.77;;;3.70;99.90;;;;;;5045565;28;20312;-81
2022/01/18 04:48:34;;;;;;;15.32;9.57;;;3.80;99.90;;;;;;5062862;28;20089;-81
2022/01/18 04:51:04;;;;;;;14.13;9.20;;;3.80;99.90;;;;;;5073312;28;20085;-82
2022/01/18 04:53:32;;;;;;;15.63;9.50;;;3.70;99.90;;;;;;5071894;28;20020;-83
2022/01/18 04:56:04;;;;;;;15.43;10.23;;;3.70;99.90;;;;;;5044882;28;20109;-82
2022/01/18 04:58:29;;;;;;;17.20;9.80;;;3.60;99.90;;;;;;5050949;28;20022;-82
2022/01/18 05:00:59;;;;;;;15.05;10.38;;;3.40;99.90;;;;;;5050142;28;20393;-83
2022/01/18 05:03:25;;;;;;;15.73;9.88;;;3.20;99.90;;;;;;5041191;28;20028;-81
2022/01/18 05:05:55;;;;;;;15.05;9.55;;;3.10;99.90;;;;;;5038378;28;20052;-81
2022/01/18 05:08:25;;;;;;;18.80;11.65;;;2.90;99.90;;;;;;5040628;28;20057;-82
2022/01/18 05:10:54;;;;;;;17.70;10.40;;;2.90;99.90;;;;;;5059778;28;20112;-82
2022/01/18 05:21:28;;;;;;;17.50;10.30;;;2.60;99.90;;;;;;5051260;28;20040;-82
2022/01/18 05:23:55;;;;;;;17.15;9.82;;;2.60;99.90;;;;;;5054920;28;20013;-80
2022/01/18 05:26:21;;;;;;;15.52;9.07;;;2.60;99.90;;;;;;5028382;28;20033;-81
2022/01/18 05:28:48;;;;;;;15.27;9.30;;;2.50;99.90;;;;;;5002399;28;20034;-82
2022/01/18 05:31:14;;;;;;;16.23;9.02;;;2.50;99.90;;;;;;5019550;28;20034;-83
2022/01/18 05:33:42;;;;;;;14.93;9.15;;;2.50;99.90;;;;;;5019248;28;20052;-84
2022/01/18 05:36:08;;;;;;;13.35;8.23;;;2.40;99.90;;;;;;5019988;28;20022;-83
2022/01/18 05:38:35;;;;;;;15.63;9.05;;;2.40;99.90;;;;;;5018043;28;20100;-81
2022/01/18 05:41:02;;;;;;;14.73;9.10;;;2.30;99.90;;;;;;5001271;28;20026;-82
2022/01/18 05:43:28;;;;;;;14.02;8.80;;;2.40;99.90;;;;;;5019503;28;20038;-80
2022/01/18 05:45:54;;;;;;;14.65;8.85;;;2.40;99.90;;;;;;5020395;28;20021;-82
2022/01/18 05:48:20;;;;;;;12.80;7.10;;;2.50;99.90;;;;;;5019625;28;20064;-80
2022/01/18 05:50:45;;;;;;;13.10;7.68;;;2.50;99.90;;;;;;5001274;28;20093;-80
2022/01/18 05:53:11;;;;;;;12.95;7.55;;;2.50;99.90;;;;;;5018822;28;20045;-79
2022/01/18 05:55:37;;;;;;;11.43;7.20;;;2.40;99.90;;;;;;5011863;28;20186;-79
2022/01/18 05:58:02;;;;;;;15.27;8.48;;;2.40;99.90;;;;;;5030157;28;20086;-80
2022/01/18 06:00:30;;;;;;;16.02;9.50;;;2.40;99.90;;;;;;5038930;28;20025;-80
2022/01/18 06:08:08;;;;;;;14.20;8.27;;;2.40;99.90;;;;;;5020978;28;20041;-81
2022/01/18 06:10:34;;;;;;;14.13;8.55;;;2.40;99.90;;;;;;5003814;28;20033;-82
2022/01/18 06:13:02;;;;;;;15.20;8.77;;;2.30;99.90;;;;;;5049334;22;20038;-79
2022/01/18 06:15:28;;;;;;;13.38;8.32;;;2.30;99.90;;;;;;5017861;28;20017;-80
2022/01/18 06:17:54;;;;;;;15.40;8.30;;;2.30;99.90;;;;;;5019682;28;20077;-81
2022/01/18 06:20:19;;;;;;;12.23;7.30;;;2.20;99.90;;;;;;5018473;28;20021;-81
2022/01/18 06:22:45;;;;;;;14.02;9.27;;;2.20;99.90;;;;;;5025420;28;20049;-81
2022/01/18 06:25:11;;;;;;;12.68;7.88;;;2.20;99.90;;;;;;5034557;28;20033;-79
2022/01/18 06:27:37;;;;;;;16.20;9.25;;;2.20;99.90;;;;;;5012133;28;20041;-80
2022/01/18 06:30:10;;;;;;;16.98;9.98;;;2.20;99.90;;;;;;5020883;28;20021;-80
2022/01/18 06:32:40;;;;;;;19.85;11.02;;;2.20;99.90;;;;;;5019503;28;20518;-83
2022/01/18 06:35:07;;;;;;;21.05;11.38;;;2.30;99.90;;;;;;5021160;28;20064;-81
2022/01/18 06:37:33;;;;;;;20.10;11.73;;;2.40;99.90;;;;;;5018094;28;20041;-82
2022/01/18 06:40:01;;;;;;;18.75;11.68;;;2.60;99.90;;;;;;5019507;28;20079;-84
2022/01/18 06:42:27;;;;;;;19.50;11.82;;;2.70;99.90;;;;;;5022130;28;20034;-83
2022/01/18 06:44:53;;;;;;;19.33;11.35;;;2.90;99.90;;;;;;5018775;28;20100;-83
2022/01/18 06:47:19;;;;;;;20.67;11.68;;;3.00;99.90;;;;;;5020103;28;20080;-82
2022/01/18 06:49:45;;;;;;;20.90;12.02;;;3.10;99.90;;;;;;5019049;28;20379;-82
2022/01/18 06:52:11;;;;;;;20.52;11.15;;;3.10;99.90;;;;;;5019898;28;20050;-82
2022/01/18 06:54:37;;;;;;;18.52;11.02;;;3.10;99.90;;;;;;5020082;28;20022;-83
2022/01/18 06:57:03;;;;;;;23.58;11.88;;;3.20;99.90;;;;;;5015625;28;20502;-82
2022/01/18 06:59:29;;;;;;;17.00;10.40;;;3.20;99.90;;;;;;5022293;28;20026;-82
2022/01/18 07:01:54;;;;;;;20.85;11.30;;;3.20;99.90;;;;;;5024139;28;20040;-82
2022/01/18 07:04:20;;;;;;;22.25;11.38;;;3.20;99.90;;;;;;5026482;28;20044;-82
2022/01/18 07:06:46;;;;;;;21.65;11.73;;;3.30;99.90;;;;;;5023146;28;20142;-82
2022/01/18 07:09:14;;;;;;;21.17;11.27;;;3.30;99.90;;;;;;5023436;28;20052;-80
2022/01/18 07:11:40;;;;;;;21.02;11.60;;;3.30;99.90;;;;;;5023718;28;20114;-82
2022/01/18 07:14:05;;;;;;;21.55;11.27;;;3.30;99.90;;;;;;5023561;28;20033;-81
2022/01/18 07:16:31;;;;;;;21.95;11.82;;;3.40;99.90;;;;;;5023245;28;20442;-83
2022/01/18 07:18:57;;;;;;;20.05;10.77;;;3.40;99.90;;;;;;5023388;28;20018;-82
2022/01/18 07:21:23;;;;;;;18.63;10.82;;;3.40;99.90;;;;;;5004517;28;20061;-82
2022/01/18 07:23:51;;;;;;;17.23;10.70;;;3.40;99.90;;;;;;5021689;28;20026;-81
2022/01/18 07:26:17;;;;;;;17.63;10.05;;;3.40;99.90;;;;;;5022929;28;20087;-82
2022/01/18 07:28:43;;;;;;;17.15;10.30;;;3.40;99.90;;;;;;5017493;28;20078;-82
2022/01/18 07:31:09;;;;;;;16.40;9.48;;;3.40;99.90;;;;;;5028893;28;20024;-81
2022/01/18 07:33:36;;;;;;;16.45;9.98;;;3.40;99.90;;;;;;5032735;28;20053;-82
2022/01/18 07:36:03;;;;;;;17.08;9.35;;;3.30;99.90;;;;;;5025083;28;20619;-82
2022/01/18 07:38:28;;;;;;;17.00;9.85;;;3.30;99.90;;;;;;5006730;28;20036;-82
2022/01/18 07:40:54;;;;;;;19.48;9.88;;;3.30;99.90;;;;;;5006787;28;20095;-81
2022/01/18 07:43:21;;;;;;;18.13;10.82;;;3.30;99.90;;;;;;5024698;28;20070;-81
2022/01/18 07:45:48;;;;;;;18.50;10.07;;;3.30;99.90;;;;;;5025472;28;20018;-81
2022/01/18 07:48:14;;;;;;;17.88;9.77;;;3.20;99.90;;;;;;5024473;28;20541;-82
2022/01/18 07:50:41;;;;;;;18.65;10.05;;;3.20;99.90;;;;;;5024652;28;20045;-82
2022/01/18 07:53:08;;;;;;;16.88;9.95;;;3.30;99.90;;;;;;5021967;28;20026;-84
2022/01/18 07:55:34;;;;;;;16.58;9.88;;;3.40;99.90;;;;;;5022574;28;20018;-84
2022/01/18 07:58:00;;;;;;;17.65;9.32;;;3.50;99.90;;;;;;5023260;28;20026;-84
2022/01/18 08:00:27;;;;;;;19.27;9.43;;;3.50;99.90;;;;;;5022612;28;20350;-84
2022/01/18 08:02:52;;;;;;;15.25;9.07;;;3.70;99.90;;;;;;5022590;28;20044;-83
2022/01/18 08:05:19;;;;;;;17.52;9.32;;;3.80;99.90;;;;;;5021787;28;20393;-84
2022/01/18 08:07:45;;;;;;;17.30;9.75;;;3.90;99.90;;;;;;5022252;28;20061;-84
2022/01/18 08:10:13;;;;;;;16.52;9.13;;;3.90;99.90;;;;;;5021936;28;20034;-82
2022/01/18 08:12:39;;;;;;;16.08;10.27;;;4.00;99.90;;;;;;5021962;28;20030;-83
2022/01/18 08:15:14;;;;;;;15.50;9.40;;;4.00;99.90;;;;;;5021151;28;20030;-84
2022/01/18 08:17:43;;;;;;;18.15;9.93;;;4.10;99.90;;;;;;5021969;28;20053;-85
2022/01/18 08:20:13;;;;;;;14.90;10.10;;;4.10;99.90;;;;;;5022014;28;20030;-82
2022/01/18 08:22:44;;;;;;;14.05;8.27;;;4.20;99.90;;;;;;5021588;28;20057;-83
2022/01/18 08:25:15;;;;;;;13.02;7.47;;;4.10;99.90;;;;;;5021519;28;20097;-83
2022/01/18 08:27:42;;;;;;;15.20;9.52;;;4.20;99.90;;;;;;5010130;28;20490;-83
2022/01/18 08:30:10;;;;;;;16.48;7.97;;;4.30;99.90;;;;;;5002259;28;20026;-83
2022/01/18 08:32:36;;;;;;;13.80;7.88;;;4.30;99.90;;;;;;5006266;28;20484;-84
2022/01/18 08:35:04;;;;;;;11.20;6.53;;;4.30;99.90;;;;;;5007722;28;20437;-83
2022/01/18 08:37:30;;;;;;;11.70;6.65;;;4.30;99.90;;;;;;5008224;28;20104;-83
2022/01/18 08:39:56;;;;;;;10.60;5.82;;;4.40;99.90;;;;;;5009083;28;20010;-85
2022/01/18 08:42:22;;;;;;;11.43;7.03;;;4.50;99.90;;;;;;5009035;28;20030;-85
2022/01/18 08:44:48;;;;;;;15.57;7.38;;;4.60;99.90;;;;;;5006505;28;20022;-85
2022/01/18 08:47:16;;;;;;;17.17;7.20;;;4.60;99.90;;;;;;5006294;28;20448;-85
2022/01/18 08:49:42;;;;;;;10.52;5.68;;;4.70;99.50;;;;;;5002339;28;20023;-84
2022/01/18 08:52:09;;;;;;;11.23;5.55;;;4.70;99.70;;;;;;5002188;28;20025;-84
2022/01/18 08:54:34;;;;;;;9.85;4.90;;;4.80;99.80;;;;;;5005473;28;20045;-84
2022/01/18 08:57:03;;;;;;;7.53;4.72;;;4.90;99.20;;;;;;5010282;28;20057;-83
2022/01/18 08:59:30;;;;;;;12.95;5.93;;;5.00;98.60;;;;;;5035258;28;20041;-84
2022/01/18 09:01:58;;;;;;;10.18;5.13;;;5.00;97.80;;;;;;5038341;28;20021;-83
2022/01/18 09:04:25;;;;;;;8.32;4.72;;;5.00;97.90;;;;;;5037889;28;20041;-83
2022/01/18 09:06:52;;;;;;;5.40;3.25;;;5.10;98.00;;;;;;5035121;28;20077;-83
2022/01/18 09:09:20;;;;;;;7.60;3.55;;;5.20;97.90;;;;;;5034980;28;20058;-84
2022/01/18 09:11:46;;;;;;;6.40;3.58;;;5.20;97.50;;;;;;5024272;28;20032;-85
2022/01/18 09:14:15;;;;;;;12.15;4.07;;;5.30;97.20;;;;;;5034764;28;20022;-84
2022/01/18 09:16:41;;;;;;;10.38;4.53;;;5.30;96.60;;;;;;5038078;28;20030;-82
2022/01/18 09:19:07;;;;;;;11.82;5.45;;;5.20;95.90;;;;;;5036857;28;20014;-82
2022/01/18 09:21:33;;;;;;;13.55;6.60;;;5.20;94.90;;;;;;5031518;28;20030;-84
2022/01/18 09:24:00;;;;;;;14.00;5.82;;;5.10;95.40;;;;;;5006496;28;20061;-84
2022/01/18 09:26:26;;;;;;;14.27;5.15;;;5.20;95.40;;;;;;5003590;28;20014;-86
2022/01/18 09:28:52;;;;;;;11.98;5.65;;;5.20;95.80;;;;;;4999639;28;20133;-84
2022/01/18 09:31:19;;;;;;;15.27;6.20;;;5.10;96.30;;;;;;5022391;28;20033;-84
2022/01/18 09:33:45;;;;;;;13.15;5.50;;;5.10;96.00;;;;;;5002724;28;20379;-84
2022/01/18 09:36:11;;;;;;;13.20;5.00;;;5.00;96.20;;;;;;5020504;28;20478;-85
2022/01/18 09:38:37;;;;;;;11.55;4.80;;;5.00;96.70;;;;;;5019420;28;20070;-85
2022/01/18 09:41:10;;;;;;;11.77;4.63;;;5.00;96.90;;;;;;5020158;28;20062;-83
2022/01/18 09:43:38;;;;;;;7.95;4.65;;;4.90;97.00;;;;;;5021148;28;20072;-84
2022/01/18 09:46:04;;;;;;;16.50;5.13;;;4.80;97.50;;;;;;5025154;28;20174;-83
2022/01/18 09:48:30;;;;;;;9.50;5.38;;;4.70;97.80;;;;;;5000642;28;20037;-85
2022/01/18 09:50:58;;;;;;;12.35;5.40;;;4.70;97.90;;;;;;5001749;28;20042;-87
2022/01/18 09:53:25;;;;;;;13.68;6.45;;;4.70;98.50;;;;;;5020683;28;20026;-85
2022/01/18 09:55:53;;;;;;;12.45;6.43;;;4.60;98.70;;;;;;4996253;28;20018;-85
2022/01/18 09:58:19;;;;;;;15.65;7.70;;;4.70;98.90;;;;;;5007925;28;20026;-84
2022/01/18 10:00:46;;;;;;;13.70;6.88;;;4.80;98.90;;;;;;4983974;28;20042;-84
2022/01/18 10:03:33;;;;;;;15.40;6.72;;;4.80;98.90;;;;;;4985663;28;20046;-84
2022/01/18 10:06:01;;;;;;;11.63;6.43;;;4.80;98.60;;;;;;4989437;28;20030;-83
2022/01/18 10:08:27;;;;;;;12.00;6.72;;;4.80;98.90;;;;;;5018925;28;20030;-84
2022/01/18 10:11:02;;;;;;;14.52;6.55;;;4.80;98.90;;;;;;5002117;28;20078;-85
2022/01/18 10:13:31;;;;;;;14.80;6.70;;;4.90;98.90;;;;;;5019063;28;20060;-85
2022/01/18 10:16:20;;;;;;;9.68;6.25;;;4.90;98.70;;;;;;5019602;28;20026;-84
2022/01/18 10:19:01;;;;;;;15.10;7.07;;;4.90;99.00;;;;;;5019271;28;20022;-84
2022/01/18 10:21:35;;;;;;;14.65;7.28;;;4.90;98.70;;;;;;5001644;28;20026;-83
2022/01/18 10:24:21;;;;;;;13.40;6.90;;;4.90;98.80;;;;;;5023420;28;20029;-84
2022/01/18 10:26:49;;;;;;;15.75;6.25;;;4.80;99.30;;;;;;4999453;28;20033;-83
2022/01/18 10:29:16;;;;;;;12.02;7.30;;;4.80;99.60;;;;;;5020240;28;20026;-82
2022/01/18 10:34:41;;;;;;;12.75;6.85;;;4.60;99.90;;;;;;5021067;28;20406;-83
2022/01/18 10:37:16;;;;;;;13.40;6.28;;;4.60;99.90;;;;;;5019360;28;20030;-84
2022/01/18 10:40:02;;;;;;;8.45;5.07;;;4.50;99.90;;;;;;5003937;28;20026;-84
2022/01/18 10:42:39;;;;;;;9.60;5.22;;;4.60;99.90;;;;;;5018502;28;20124;-84
2022/01/18 10:45:28;;;;;;;9.45;5.35;;;4.70;99.90;;;;;;5018539;28;20037;-84
2022/01/18 10:48:15;;;;;;;6.20;4.55;;;4.80;99.90;;;;;;5020806;28;20018;-84
2022/01/18 10:50:44;;;;;;;7.38;4.22;;;4.80;99.90;;;;;;5007942;28;20018;-84
2022/01/18 10:53:17;;;;;;;10.02;4.10;;;4.90;99.80;;;;;;5000040;28;20026;-81
2022/01/18 10:55:45;;;;;;;8.38;4.20;;;5.00;99.50;;;;;;5021157;28;20033;-82
2022/01/18 10:58:16;;;;;;;7.95;3.50;;;5.10;99.40;;;;;;5011626;28;20033;-84
2022/01/18 11:00:43;;;;;;;6.50;3.72;;;5.20;99.40;;;;;;5003784;28;20032;-83
2022/01/18 11:03:10;;;;;;;6.80;3.55;;;5.20;99.00;;;;;;5020815;28;20563;-83
2022/01/18 11:05:37;;;;;;;8.63;3.28;;;5.20;98.90;;;;;;5019964;28;20049;-84
2022/01/18 11:08:04;;;;;;;8.88;2.90;;;5.20;98.10;;;;;;5018613;28;20030;-83
2022/01/18 11:10:36;;;;;;;5.53;3.00;;;5.10;97.90;;;;;;5015675;28;20026;-83
2022/01/18 11:13:05;;;;;;;;;;;5.10;97.40;;;;;;5021329;28;20034;-83
2022/01/18 11:15:33;;;;;;;9.05;3.30;;;5.00;96.90;;;;;;5021040;28;19992;-83
2022/01/18 11:18:08;;;;;;;4.35;2.28;;;5.00;96.50;;;;;;5023611;28;20376;-85
2022/01/18 11:20:42;;;;;;;7.47;2.33;;;5.00;96.50;;;;;;5025993;28;20089;-84
2022/01/18 11:23:09;;;;;;;12.32;3.60;;;5.00;96.10;;;;;;5024976;28;20402;-82
2022/01/18 11:25:37;;;;;;;5.43;2.15;;;5.00;95.90;;;;;;5020941;28;20041;-84
2022/01/18 11:28:08;;;;;;;6.45;2.80;;;5.10;96.30;;;;;;5009457;28;20026;-84
2022/01/18 11:30:39;;;;;;;6.80;2.65;;;5.10;96.20;;;;;;4984924;28;20090;-85
2022/01/18 11:33:07;;;;;;;8.95;3.20;;;5.20;95.70;;;;;;4983060;28;20019;-85
2022/01/18 11:35:58;;;;;;;10.32;2.85;;;5.20;95.50;;;;;;4999844;28;20050;-85
2022/01/18 11:38:49;;;;;;;11.32;2.42;;;5.20;94.90;;;;;;5021462;28;20057;-86
2022/01/18 11:41:29;;;;;;;10.77;3.22;;;5.20;95.10;;;;;;5021453;28;20022;-83
2022/01/18 11:43:56;;;;;;;7.18;2.05;;;5.30;94.90;;;;;;5022936;28;20414;-85
2022/01/18 11:46:30;;;;;;;5.78;2.45;;;5.30;95.10;;;;;;5022471;28;20479;-85
2022/01/18 11:49:01;;;;;;;7.55;3.03;;;5.40;95.20;;;;;;5021876;28;20030;-85
2022/01/18 11:51:36;;;;;;;5.85;2.35;;;5.40;94.60;;;;;;5023844;28;20447;-84
2022/01/18 11:57:24;;;;;;;6.95;2.92;;;5.50;94.10;;;;;;5019794;28;20105;-85
2022/01/18 11:59:53;;;;;;;8.80;2.70;;;5.50;93.60;;;;;;5005629;28;20053;-84
2022/01/18 12:02:31;;;;;;;5.30;2.50;;;5.50;93.50;;;;;;5031368;28;20022;-84
2022/01/18 12:05:05;;;;;;;8.77;3.05;;;5.40;93.50;;;;;;5036427;28;20489;-79
2022/01/18 12:07:34;;;;;;;8.10;3.28;;;5.40;93.60;;;;;;5037750;28;20042;-81
2022/01/18 12:10:02;;;;;;;7.90;3.10;;;5.40;93.50;;;;;;5033903;28;20037;-82
2022/01/18 12:12:45;;;;;;;5.45;3.13;;;5.40;93.80;;;;;;5044218;22;20020;-82
2022/01/18 12:15:19;;;;;;;9.00;3.28;;;5.40;94.00;;;;;;5051458;28;20060;-81
2022/01/18 12:18:00;;;;;;;7.35;2.65;;;5.40;93.10;;;;;;5060416;28;20056;-81
2022/01/18 12:20:39;;;;;;;10.65;3.42;;;5.30;92.50;;;;;;5060674;28;20495;-80
2022/01/18 12:23:41;;;;;;;11.77;3.55;;;5.20;92.90;;;;;;5059952;28;20020;-81
2022/01/18 12:26:33;;;;;;;9.98;3.05;;;5.20;93.00;;;;;;5021303;28;20041;-81
2022/01/18 12:34:32;;;;;;;5.30;2.60;;;5.30;92.80;;;;;;5052548;28;20040;-81
2022/01/18 12:37:19;;;;;;;12.82;3.08;;;5.30;92.50;;;;;;5037823;28;20030;-81
2022/01/18 12:45:19;;;;;;;8.07;2.92;;;5.30;91.90;;;;;;5038646;28;20049;-81
2022/01/18 12:47:51;;;;;;;8.02;3.13;;;5.30;92.20;;;;;;5038489;28;20057;-81
2022/01/18 12:50:21;;;;;;;10.52;4.47;;;5.40;92.60;;;;;;5050758;28;20519;-79
2022/01/18 12:52:54;;;;;;;15.45;3.53;;;5.40;92.60;;;;;;5059267;28;20056;-80
2022/01/18 12:55:32;;;;;;;8.60;2.72;;;5.30;92.50;;;;;;5051866;28;20057;-81
2022/01/18 12:58:20;;;;;;;12.05;3.60;;;5.40;92.70;;;;;;5036675;28;20032;-82
2022/01/18 13:00:57;;;;;;;13.07;3.95;;;5.40;91.70;;;;;;5022675;28;20055;-80
2022/01/18 13:03:35;;;;;;;11.45;3.28;;;5.30;91.70;;;;;;5031981;28;20029;-80
2022/01/18 13:06:05;;;;;;;12.07;3.70;;;5.30;92.20;;;;;;5048935;28;20075;-81
2022/01/18 13:08:46;;;;;;;14.88;3.35;;;5.20;92.30;;;;;;5039577;28;20048;-80
2022/01/18 13:11:15;;;;;;;16.52;4.93;;;5.20;92.40;;;;;;5037241;28;20024;-80
2022/01/18 13:13:49;;;;;;;12.90;3.15;;;5.20;91.90;;;;;;5037876;28;20022;-82
2022/01/18 13:24:40;;;;;;;11.35;3.65;;;5.20;92.20;;;;;;5037428;28;20091;-81
2022/01/18 13:27:10;;;;;;;6.63;2.85;;;5.10;92.60;;;;;;5044649;28;20029;-81
2022/01/18 13:29:36;;;;;;;10.27;3.42;;;5.20;92.70;;;;;;5036430;28;20025;-81
2022/01/18 13:32:21;;;;;;;11.05;2.92;;;5.30;92.00;;;;;;5037296;28;20039;-81
2022/01/18 13:34:57;;;;;;;13.73;3.58;;;5.20;91.90;;;;;;5019616;28;20402;-81
2022/01/18 13:37:30;;;;;;;7.82;2.60;;;5.30;91.70;;;;;;5045484;28;20025;-80
2022/01/18 13:39:58;;;;;;;10.48;3.03;;;5.30;91.90;;;;;;5061230;28;20188;-80
2022/01/18 13:42:31;;;;;;;7.97;2.40;;;5.40;91.90;;;;;;5050397;28;20022;-81
2022/01/18 13:45:24;;;;;;;10.80;2.63;;;5.40;91.60;;;;;;5046573;28;20037;-80
2022/01/18 13:48:00;;;;;;;;;;;5.40;90.50;;;;;;5050557;28;20029;-81
2022/01/18 13:50:43;;;;;;;4.65;1.98;;;5.40;90.30;;;;;;5051103;28;19956;-81
2022/01/18 13:53:21;;;;;;;5.20;1.65;;;5.30;90.70;;;;;;5051597;28;20075;-81
2022/01/18 13:56:17;;;;;;;7.80;1.87;;;5.50;90.50;;;;;;5034165;28;20033;-80
2022/01/18 13:59:03;;;;;;;8.10;1.90;;;5.50;90.00;;;;;;5061513;28;20033;-81
2022/01/18 14:01:37;;;;;;;6.45;2.10;;;5.40;88.90;;;;;;5051081;28;20029;-81
2022/01/18 14:04:18;;;;;;;9.27;2.10;;;5.40;87.60;;;;;;5020038;28;20191;-82
2022/01/18 14:06:44;;;;;;;8.23;2.35;;;5.50;86.50;;;;;;5020116;28;20033;-81
2022/01/18 14:09:12;;;;;;;5.38;1.85;;;5.40;84.70;;;;;;5049950;28;20122;-82
2022/01/18 14:11:39;;;;;;;7.43;1.77;;;5.30;84.30;;;;;;5062186;28;20029;-82
2022/01/18 14:14:17;;;;;;;5.43;1.90;;;5.20;84.20;;;;;;5044610;28;20063;-81
2022/01/18 14:16:53;;;;;;;4.22;1.83;;;5.10;84.90;;;;;;5052997;28;20056;-82
2022/01/18 14:19:39;;;;;;;10.30;2.00;;;5.00;85.20;;;;;;5051689;28;20026;-81
2022/01/18 14:22:23;;;;;;;6.53;1.73;;;4.90;86.00;;;;;;5057297;28;20081;-80
2022/01/18 14:24:50;;;;;;;7.85;1.70;;;4.90;85.20;;;;;;5028525;28;20017;-81
2022/01/18 14:27:25;;;;;;;7.97;1.70;;;4.90;86.10;;;;;;5031406;28;20032;-80
2022/01/18 14:29:59;;;;;;;11.98;2.33;;;4.90;86.60;;;;;;5049392;28;20052;-81
2022/01/18 14:32:36;;;;;;;2.92;1.60;;;4.90;85.60;;;;;;5041718;28;20081;-80
2022/01/18 14:35:11;;;;;;;3.67;1.83;;;4.90;86.40;;;;;;5040768;28;20528;-80
2022/01/18 14:37:37;;;;;;;7.32;1.98;;;4.90;86.40;;;;;;5038481;28;20382;-79
2022/01/18 14:40:11;;;;;;;4.70;2.42;;;5.00;86.60;;;;;;5020171;28;20064;-81